Time;durP1;ratioP1;P1;durP2;ratioP2;P2;SDS_P1;SDS_P2;PMS_P1;PMS_P2;Temp;Humidity;BMP_temperature;BMP_pressure;BME280_temperature;BME280_humidity;BME280_pressure;Samples;Min_cycle;Max_cycle;Signal;HPM_P1;HPM_P2
2021/05/04 00:01:47;;;;;;;5.87;4.57;;;12.00;99.00;;;;;;5042652;28;20167;-64
2021/05/04 00:04:13;;;;;;;5.30;4.80;;;12.00;99.30;;;;;;5031814;28;20286;-64
2021/05/04 00:06:38;;;;;;;5.33;4.27;;;12.00;99.20;;;;;;5038334;28;20167;-64
2021/05/04 00:09:05;;;;;;;5.40;4.23;;;12.00;99.10;;;;;;5051798;28;20220;-64
2021/05/04 00:11:31;;;;;;;6.67;4.20;;;12.00;99.20;;;;;;5046125;28;20187;-63
2021/05/04 00:13:57;;;;;;;7.00;4.60;;;12.10;99.20;;;;;;5031722;28;20187;-65
2021/05/04 00:16:23;;;;;;;4.93;3.93;;;12.00;99.00;;;;;;5035110;28;20220;-64
2021/05/04 00:18:48;;;;;;;4.63;4.07;;;12.10;99.30;;;;;;5051628;28;20270;-64
2021/05/04 00:21:14;;;;;;;5.10;4.20;;;12.10;99.20;;;;;;5048562;28;20738;-64
2021/05/04 00:23:40;;;;;;;6.13;4.17;;;12.10;99.10;;;;;;5031515;28;20852;-64
2021/05/04 00:26:07;;;;;;;5.07;4.57;;;12.10;99.10;;;;;;5032492;28;20172;-64
2021/05/04 00:28:33;;;;;;;5.63;3.77;;;12.00;99.20;;;;;;5051626;28;20182;-63
2021/05/04 00:30:59;;;;;;;4.73;4.20;;;12.10;99.00;;;;;;5051258;28;20202;-64
2021/05/04 00:33:24;;;;;;;4.03;3.63;;;12.20;98.80;;;;;;5034976;28;20206;-63
2021/05/04 00:35:51;;;;;;;4.23;3.77;;;12.20;98.70;;;;;;5051409;28;20174;-64
2021/05/04 00:38:17;;;;;;;4.20;3.80;;;12.30;98.80;;;;;;5033457;28;20245;-63
2021/05/04 00:40:42;;;;;;;4.93;4.47;;;12.30;98.90;;;;;;5031311;28;20176;-64
2021/05/04 00:43:08;;;;;;;8.97;3.63;;;12.30;98.90;;;;;;5048059;28;20222;-64
2021/05/04 00:45:34;;;;;;;4.30;3.60;;;12.30;98.70;;;;;;5051384;28;20181;-63
2021/05/04 00:47:59;;;;;;;5.70;3.50;;;12.30;98.50;;;;;;5035981;28;20183;-64
2021/05/04 00:50:25;;;;;;;6.50;3.70;;;12.30;98.80;;;;;;5031196;28;20646;-63
2021/05/04 00:52:52;;;;;;;3.80;3.50;;;12.40;98.70;;;;;;5045179;28;20207;-64
2021/05/04 00:55:17;;;;;;;3.93;3.60;;;12.40;98.80;;;;;;5055395;28;20202;-64
2021/05/04 00:57:43;;;;;;;6.63;3.83;;;12.40;98.90;;;;;;5043277;28;20206;-64
2021/05/04 01:00:12;;;;;;;3.50;3.30;;;12.40;99.10;;;;;;5035131;28;20176;-65
2021/05/04 01:02:40;;;;;;;4.17;3.77;;;12.40;98.70;;;;;;5046379;28;20202;-64
2021/05/04 01:05:07;;;;;;;4.27;3.40;;;12.40;98.70;;;;;;5055328;28;20183;-63
2021/05/04 01:07:32;;;;;;;3.53;3.33;;;12.40;98.50;;;;;;5044787;28;20182;-64
2021/05/04 01:09:58;;;;;;;3.53;3.33;;;12.40;98.60;;;;;;5034926;28;20179;-63
2021/05/04 01:12:24;;;;;;;3.83;3.53;;;12.50;98.40;;;;;;5043181;28;20246;-64
2021/05/04 01:14:49;;;;;;;4.03;3.63;;;12.40;98.40;;;;;;5055116;28;20175;-65
2021/05/04 01:17:15;;;;;;;4.70;3.70;;;12.50;98.50;;;;;;5048169;28;20188;-64
2021/05/04 01:19:41;;;;;;;3.53;3.30;;;12.50;97.90;;;;;;5034862;28;20175;-63
2021/05/04 01:22:06;;;;;;;3.87;3.57;;;12.60;98.30;;;;;;5040237;28;20229;-65
2021/05/04 01:24:32;;;;;;;3.80;3.50;;;12.60;98.40;;;;;;5054895;28;20181;-64
2021/05/04 01:26:58;;;;;;;3.30;3.10;;;12.60;98.00;;;;;;5050757;28;20596;-65
2021/05/04 01:29:25;;;;;;;4.03;3.30;;;12.70;97.80;;;;;;5034891;28;20544;-64
2021/05/04 01:31:52;;;;;;;3.60;3.30;;;12.70;98.00;;;;;;5036682;28;20398;-64
2021/05/04 01:34:18;;;;;;;8.40;4.30;;;12.80;97.50;;;;;;5047807;28;20202;-64
2021/05/04 01:36:44;;;;;;;3.93;3.50;;;12.90;97.40;;;;;;5035431;28;20175;-64
2021/05/04 01:39:10;;;;;;;3.77;3.43;;;13.00;97.10;;;;;;5054570;28;20213;-64
2021/05/04 01:41:37;;;;;;;3.83;3.50;;;13.00;96.70;;;;;;5053986;28;20178;-64
2021/05/04 01:44:04;;;;;;;4.53;4.10;;;13.10;97.00;;;;;;5034411;28;20249;-65
2021/05/04 01:46:33;;;;;;;4.77;3.10;;;13.10;96.50;;;;;;5034970;28;20206;-63
2021/05/04 01:49:03;;;;;;;3.10;2.90;;;13.10;96.70;;;;;;5050323;28;20194;-63
2021/05/04 01:51:31;;;;;;;6.40;3.63;;;13.10;96.20;;;;;;5034168;28;20195;-63
2021/05/04 01:53:57;;;;;;;6.83;3.30;;;13.20;96.10;;;;;;5052303;28;20211;-63
2021/05/04 01:56:23;;;;;;;3.27;3.00;;;13.20;96.30;;;;;;5052663;28;20179;-64
2021/05/04 01:58:49;;;;;;;3.10;2.80;;;13.20;95.90;;;;;;5054281;28;20308;-65
2021/05/04 02:01:16;;;;;;;6.20;2.90;;;13.20;95.60;;;;;;5049692;28;20590;-68
2021/05/04 02:03:42;;;;;;;10.37;3.07;;;13.20;95.60;;;;;;5034923;28;20188;-67
2021/05/04 02:06:08;;;;;;;4.53;2.70;;;13.20;95.20;;;;;;5038104;28;20265;-66
2021/05/04 02:08:34;;;;;;;5.03;2.67;;;13.20;95.00;;;;;;5034637;28;20584;-65
2021/05/04 02:11:00;;;;;;;2.93;2.70;;;13.20;94.60;;;;;;5037449;28;20187;-68
2021/05/04 02:13:25;;;;;;;4.13;2.93;;;13.20;94.90;;;;;;5055294;28;20206;-69
2021/05/04 02:15:52;;;;;;;5.63;2.90;;;13.00;94.80;;;;;;5054551;28;20171;-65
2021/05/04 02:18:17;;;;;;;2.90;2.70;;;12.70;96.30;;;;;;5035283;28;20184;-66
2021/05/04 02:20:43;;;;;;;3.00;2.80;;;12.30;97.90;;;;;;5034693;28;20175;-66
2021/05/04 02:23:09;;;;;;;5.10;2.80;;;12.00;99.90;;;;;;5052423;28;20793;-66
2021/05/04 02:25:35;;;;;;;5.90;3.27;;;11.60;99.90;;;;;;5054976;28;20588;-67
2021/05/04 02:28:03;;;;;;;7.83;3.20;;;11.20;99.90;;;;;;5036026;28;20648;-68
2021/05/04 02:30:32;;;;;;;14.40;3.43;;;10.60;99.90;;;;;;5033975;28;20185;-68
2021/05/04 02:32:58;;;;;;;8.53;3.53;;;10.30;99.90;;;;;;5048248;28;20214;-66
2021/05/04 02:35:24;;;;;;;14.17;4.00;;;10.10;99.90;;;;;;5039349;28;20531;-65
2021/05/04 02:37:49;;;;;;;22.33;5.13;;;10.00;99.90;;;;;;5035117;28;20569;-69
2021/05/04 02:40:15;;;;;;;7.67;4.00;;;9.80;99.90;;;;;;5048645;28;20571;-69
2021/05/04 02:42:41;;;;;;;3.50;3.20;;;9.70;99.90;;;;;;5054430;28;20632;-68
2021/05/04 02:45:07;;;;;;;6.63;3.43;;;9.50;99.90;;;;;;5042279;28;20179;-67
2021/05/04 02:47:32;;;;;;;6.40;3.17;;;9.50;99.90;;;;;;5034899;28;20175;-68
2021/05/04 02:49:58;;;;;;;5.00;3.33;;;9.40;99.90;;;;;;5045031;28;20247;-67
2021/05/04 02:52:24;;;;;;;6.07;3.47;;;9.30;99.90;;;;;;5054236;28;20214;-68
2021/05/04 02:54:49;;;;;;;3.73;3.43;;;9.20;99.90;;;;;;5045557;28;20171;-68
2021/05/04 02:57:16;;;;;;;3.40;3.20;;;9.10;99.90;;;;;;5034712;28;20172;-66
2021/05/04 02:59:42;;;;;;;4.30;3.80;;;9.00;99.90;;;;;;5041549;28;20171;-68
2021/05/04 03:02:07;;;;;;;4.60;3.47;;;8.80;99.90;;;;;;5053993;28;20182;-68
2021/05/04 03:04:33;;;;;;;4.83;4.00;;;8.90;99.90;;;;;;5046936;28;20575;-69
2021/05/04 03:06:59;;;;;;;3.67;3.47;;;8.80;99.90;;;;;;5034429;28;20221;-69
2021/05/04 03:09:24;;;;;;;4.87;3.23;;;8.70;99.90;;;;;;5039251;28;20205;-69
2021/05/04 03:11:50;;;;;;;5.93;3.33;;;8.70;99.90;;;;;;5053454;28;20620;-68
2021/05/04 03:14:16;;;;;;;4.93;3.30;;;8.60;99.90;;;;;;5050640;28;20197;-68
2021/05/04 03:16:41;;;;;;;4.97;3.87;;;8.60;99.90;;;;;;5033855;28;20229;-69
2021/05/04 03:19:07;;;;;;;4.00;3.60;;;8.60;99.90;;;;;;5034327;28;20542;-67
2021/05/04 03:21:32;;;;;;;3.93;3.57;;;8.60;99.90;;;;;;5053854;28;20174;-68
2021/05/04 03:23:58;;;;;;;5.77;3.80;;;8.60;99.90;;;;;;5053371;28;20191;-69
2021/05/04 03:26:24;;;;;;;3.90;3.60;;;8.60;99.90;;;;;;5052261;28;20194;-70
2021/05/04 03:28:49;;;;;;;3.80;3.40;;;8.60;99.90;;;;;;5052929;28;20182;-69
2021/05/04 03:31:15;;;;;;;3.70;3.40;;;8.40;99.90;;;;;;5035045;28;20210;-69
2021/05/04 03:33:41;;;;;;;4.20;3.80;;;8.60;99.90;;;;;;5034012;28;20207;-71
2021/05/04 03:36:06;;;;;;;5.47;3.67;;;8.60;99.90;;;;;;5049136;28;20179;-70
2021/05/04 03:38:33;;;;;;;3.80;3.50;;;8.60;99.90;;;;;;5045456;28;20682;-68
2021/05/04 03:40:59;;;;;;;3.87;3.67;;;8.60;99.90;;;;;;5053421;28;20193;-67
2021/05/04 03:43:25;;;;;;;3.97;3.67;;;8.60;99.90;;;;;;5042900;28;20211;-71
2021/05/04 03:45:50;;;;;;;5.73;3.40;;;8.60;99.90;;;;;;5033671;28;20172;-70
2021/05/04 03:48:16;;;;;;;4.00;3.70;;;8.60;99.90;;;;;;5042463;28;20560;-66
2021/05/04 03:50:42;;;;;;;4.33;3.93;;;8.70;99.90;;;;;;5053175;28;20187;-67
2021/05/04 03:53:08;;;;;;;4.50;3.50;;;8.70;99.90;;;;;;5045573;28;20211;-69
2021/05/04 03:55:33;;;;;;;3.67;3.37;;;8.70;99.90;;;;;;5033491;28;20175;-67
2021/05/04 03:57:59;;;;;;;4.33;4.03;;;8.70;99.90;;;;;;5036689;28;20644;-63
2021/05/04 04:00:25;;;;;;;3.57;3.37;;;8.70;99.90;;;;;;5051575;28;20171;-65
2021/05/04 04:02:51;;;;;;;4.10;3.73;;;8.70;99.90;;;;;;5047858;28;20197;-65
2021/05/04 04:05:17;;;;;;;3.80;3.50;;;8.60;99.90;;;;;;5032054;28;20182;-65
2021/05/04 04:07:43;;;;;;;3.80;3.53;;;8.60;99.90;;;;;;5035022;28;20178;-65
2021/05/04 04:10:11;;;;;;;5.53;3.40;;;8.60;99.90;;;;;;5050275;28;20178;-64
2021/05/04 04:12:37;;;;;;;3.57;3.37;;;8.60;99.90;;;;;;5049803;28;20575;-64
2021/05/04 04:15:03;;;;;;;4.37;3.50;;;8.60;99.90;;;;;;5031865;28;20182;-65
2021/05/04 04:17:29;;;;;;;5.80;3.47;;;8.70;99.90;;;;;;5031763;28;20175;-64
2021/05/04 04:19:54;;;;;;;3.97;3.67;;;8.70;99.90;;;;;;5051218;28;20181;-64
2021/05/04 04:22:20;;;;;;;4.70;3.47;;;8.80;99.90;;;;;;5051537;28;20181;-64
2021/05/04 04:24:45;;;;;;;3.60;3.30;;;8.80;99.90;;;;;;5033384;28;20552;-65
2021/05/04 04:27:11;;;;;;;3.90;3.60;;;8.90;99.90;;;;;;5031665;28;20222;-65
2021/05/04 04:29:37;;;;;;;5.53;3.50;;;8.90;99.90;;;;;;5048075;28;20194;-63
2021/05/04 04:32:03;;;;;;;3.63;3.30;;;8.90;99.90;;;;;;5051082;28;20411;-65
2021/05/04 04:34:30;;;;;;;5.97;3.10;;;9.00;99.90;;;;;;5035641;28;20182;-64
2021/05/04 04:36:56;;;;;;;4.77;3.37;;;9.00;99.90;;;;;;5031709;28;20591;-64
2021/05/04 04:39:21;;;;;;;3.70;3.40;;;9.10;99.90;;;;;;5045370;28;20589;-65
2021/05/04 04:41:47;;;;;;;3.63;3.43;;;9.10;99.90;;;;;;5032939;28;20175;-64
2021/05/04 04:44:13;;;;;;;4.37;3.67;;;9.10;99.90;;;;;;5043236;28;20353;-63
2021/05/04 04:46:41;;;;;;;4.63;3.40;;;9.20;99.90;;;;;;5051481;28;20174;-65
2021/05/04 04:49:12;;;;;;;3.70;3.40;;;9.10;99.90;;;;;;5039438;28;20175;-64
2021/05/04 04:51:38;;;;;;;4.23;3.43;;;9.10;99.90;;;;;;5031344;28;20167;-64
2021/05/04 04:54:05;;;;;;;3.70;3.50;;;9.20;99.90;;;;;;5041536;28;20289;-64
2021/05/04 04:56:31;;;;;;;4.33;3.60;;;9.20;99.90;;;;;;5051323;28;20710;-64
2021/05/04 04:58:57;;;;;;;3.73;3.53;;;9.20;99.90;;;;;;5042171;28;20241;-64
2021/05/04 05:01:23;;;;;;;3.40;3.20;;;9.20;99.90;;;;;;5031122;28;20187;-64
2021/05/04 05:03:48;;;;;;;3.83;3.53;;;9.20;99.90;;;;;;5037935;28;20194;-64
2021/05/04 05:06:14;;;;;;;3.93;3.53;;;9.20;99.90;;;;;;5048950;28;20296;-65
2021/05/04 05:08:40;;;;;;;3.50;3.30;;;9.30;99.90;;;;;;5050626;28;20182;-64
2021/05/04 05:11:06;;;;;;;3.47;3.17;;;9.40;99.90;;;;;;5050803;28;20179;-64
2021/05/04 05:13:31;;;;;;;3.43;3.00;;;9.30;99.90;;;;;;5046237;28;20211;-64
2021/05/04 05:15:57;;;;;;;4.93;2.97;;;9.40;99.90;;;;;;5031006;28;20191;-64
2021/05/04 05:18:22;;;;;;;4.87;3.63;;;9.40;99.90;;;;;;5033565;28;20254;-65
2021/05/04 05:20:48;;;;;;;3.20;3.00;;;9.40;99.90;;;;;;5050798;28;20167;-64
2021/05/04 05:23:14;;;;;;;3.57;3.37;;;9.40;99.90;;;;;;5049859;28;20623;-64
2021/05/04 05:25:40;;;;;;;3.80;3.50;;;9.40;99.90;;;;;;5031258;28;20695;-64
2021/05/04 05:28:07;;;;;;;3.33;3.13;;;9.40;99.90;;;;;;5031111;28;21078;-64
2021/05/04 05:30:33;;;;;;;3.40;3.20;;;9.40;99.90;;;;;;5050596;28;20207;-64
2021/05/04 05:32:59;;;;;;;3.20;3.00;;;9.40;99.90;;;;;;5049651;28;20211;-65
2021/05/04 05:35:25;;;;;;;3.50;3.20;;;9.40;99.90;;;;;;5031910;28;20176;-65
2021/05/04 05:37:51;;;;;;;3.53;3.20;;;9.40;99.90;;;;;;5031006;28;20221;-64
2021/05/04 05:40:16;;;;;;;4.07;3.20;;;9.40;99.90;;;;;;5048734;28;20207;-64
2021/05/04 05:42:42;;;;;;;3.97;3.57;;;9.50;99.90;;;;;;5034910;28;20203;-65
2021/05/04 05:45:08;;;;;;;6.30;3.40;;;9.40;99.90;;;;;;5049306;28;20186;-64
2021/05/04 05:47:34;;;;;;;3.60;3.30;;;9.40;99.90;;;;;;5054359;28;20651;-65
2021/05/04 05:50:00;;;;;;;3.53;3.23;;;9.50;99.90;;;;;;5039333;28;20180;-64
2021/05/04 05:52:25;;;;;;;3.20;3.00;;;9.50;99.90;;;;;;5033585;28;20204;-65
2021/05/04 05:54:51;;;;;;;3.17;2.97;;;9.60;99.90;;;;;;5046053;28;20186;-64
2021/05/04 05:57:17;;;;;;;3.30;3.10;;;9.60;99.90;;;;;;5053817;28;20657;-64
2021/05/04 05:59:43;;;;;;;3.70;3.40;;;9.70;99.90;;;;;;5050973;28;20187;-64
2021/05/04 06:02:08;;;;;;;2.83;2.73;;;9.80;99.90;;;;;;5053345;28;20175;-64
2021/05/04 06:04:34;;;;;;;4.70;2.90;;;9.80;99.90;;;;;;5044690;28;20241;-64
2021/05/04 06:06:59;;;;;;;3.40;3.20;;;9.90;99.90;;;;;;5034038;28;20178;-64
2021/05/04 06:09:25;;;;;;;4.07;3.20;;;10.00;99.90;;;;;;5041486;28;20533;-64
2021/05/04 06:11:51;;;;;;;3.37;3.17;;;10.00;99.90;;;;;;5053198;28;20166;-63
2021/05/04 06:14:17;;;;;;;3.40;3.10;;;10.10;99.90;;;;;;5049963;28;20193;-65
2021/05/04 06:16:42;;;;;;;3.63;3.30;;;10.10;99.90;;;;;;5053735;28;20171;-65
2021/05/04 06:19:08;;;;;;;3.27;3.03;;;10.10;99.90;;;;;;5049124;28;20659;-64
2021/05/04 06:21:34;;;;;;;5.87;3.00;;;10.10;99.90;;;;;;5033138;28;20207;-64
2021/05/04 06:23:59;;;;;;;3.50;3.20;;;10.10;99.90;;;;;;5035778;28;20230;-64
2021/05/04 06:26:25;;;;;;;5.63;2.80;;;10.10;99.90;;;;;;5053221;28;20175;-64
2021/05/04 06:28:51;;;;;;;3.40;3.20;;;10.20;99.90;;;;;;5051304;28;20639;-64
2021/05/04 06:31:18;;;;;;;5.60;3.20;;;10.20;99.90;;;;;;5032603;28;20172;-63
2021/05/04 06:33:44;;;;;;;3.63;3.00;;;10.30;99.90;;;;;;5033354;28;20278;-64
2021/05/04 06:36:10;;;;;;;3.37;3.10;;;10.20;99.90;;;;;;5049290;28;20601;-65
2021/05/04 06:38:36;;;;;;;3.13;2.93;;;10.20;99.90;;;;;;5053336;28;20541;-64
2021/05/04 06:41:02;;;;;;;3.20;3.00;;;10.20;99.90;;;;;;5048708;28;20186;-64
2021/05/04 06:43:28;;;;;;;3.50;3.20;;;10.10;99.90;;;;;;5032809;28;20211;-64
2021/05/04 06:45:54;;;;;;;3.30;3.00;;;10.10;99.90;;;;;;5049780;28;20269;-64
2021/05/04 06:48:19;;;;;;;3.10;2.90;;;10.10;99.90;;;;;;5052793;28;20497;-64
2021/05/04 06:50:45;;;;;;;3.33;3.10;;;10.20;99.90;;;;;;5049911;28;20194;-64
2021/05/04 06:53:11;;;;;;;3.20;3.00;;;10.20;99.90;;;;;;5052787;28;20210;-65
2021/05/04 06:55:37;;;;;;;2.90;2.80;;;10.30;99.90;;;;;;5038553;28;20180;-65
2021/05/04 06:58:03;;;;;;;3.77;3.47;;;10.40;99.90;;;;;;5032996;28;20258;-64
2021/05/04 07:00:28;;;;;;;4.53;3.30;;;10.50;99.90;;;;;;5035016;28;20195;-64
2021/05/04 07:02:54;;;;;;;2.70;2.60;;;10.60;99.90;;;;;;5032737;28;20286;-64
2021/05/04 07:05:21;;;;;;;2.93;2.60;;;10.60;99.90;;;;;;5043007;28;20560;-64
2021/05/04 07:07:46;;;;;;;3.20;3.00;;;10.60;99.90;;;;;;5052969;28;20207;-64
2021/05/04 07:10:12;;;;;;;3.33;3.00;;;10.80;99.90;;;;;;5042126;28;20677;-65
2021/05/04 07:12:39;;;;;;;7.87;2.80;;;10.90;99.90;;;;;;5032261;28;20278;-64
2021/05/04 07:15:05;;;;;;;5.40;2.90;;;10.90;99.90;;;;;;5041003;28;20620;-64
2021/05/04 07:17:31;;;;;;;3.07;2.77;;;11.00;99.90;;;;;;5052456;28;20174;-64
2021/05/04 07:19:57;;;;;;;2.87;2.67;;;11.00;99.90;;;;;;5045618;28;20222;-64
2021/05/04 07:22:25;;;;;;;2.80;2.70;;;11.10;99.90;;;;;;5031854;28;20254;-64
2021/05/04 07:24:51;;;;;;;4.13;2.80;;;11.00;99.90;;;;;;5037432;28;20176;-64
2021/05/04 07:27:17;;;;;;;2.93;2.60;;;11.00;99.90;;;;;;5052188;28;20179;-65
2021/05/04 07:29:42;;;;;;;5.10;2.97;;;11.00;99.90;;;;;;5047385;28;20598;-65
2021/05/04 07:32:08;;;;;;;3.93;2.87;;;11.10;99.90;;;;;;5031705;28;20727;-64
2021/05/04 07:34:34;;;;;;;3.23;2.50;;;11.00;99.90;;;;;;5034763;28;20206;-64
2021/05/04 07:37:00;;;;;;;2.83;2.73;;;11.10;99.90;;;;;;5052164;28;20171;-64
2021/05/04 07:39:25;;;;;;;2.70;2.60;;;11.10;99.90;;;;;;5050871;28;20691;-64
2021/05/04 07:41:51;;;;;;;3.00;2.70;;;11.20;99.90;;;;;;5035587;28;20183;-64
2021/05/04 07:44:17;;;;;;;2.70;2.50;;;11.20;99.90;;;;;;5035683;28;20214;-65
2021/05/04 07:46:43;;;;;;;3.07;2.87;;;11.30;99.90;;;;;;5042549;28;20269;-64
2021/05/04 07:49:12;;;;;;;5.47;2.70;;;11.40;99.90;;;;;;5046401;28;20175;-65
2021/05/04 07:51:38;;;;;;;6.00;2.50;;;11.50;99.90;;;;;;5040771;28;20186;-64
2021/05/04 07:54:04;;;;;;;3.40;2.57;;;11.60;99.90;;;;;;5047126;28;20206;-64
2021/05/04 07:56:30;;;;;;;5.33;3.00;;;11.80;99.90;;;;;;5031669;28;20693;-64
2021/05/04 07:58:56;;;;;;;2.60;2.40;;;12.00;99.90;;;;;;5034377;28;20175;-64
2021/05/04 08:01:21;;;;;;;9.10;3.27;;;12.10;99.90;;;;;;5051352;28;20170;-64
2021/05/04 08:03:47;;;;;;;2.83;2.60;;;12.10;99.90;;;;;;5050081;28;20233;-64
2021/05/04 08:06:12;;;;;;;4.73;3.03;;;12.00;99.90;;;;;;5031610;28;20640;-64
2021/05/04 08:08:38;;;;;;;2.87;2.53;;;11.70;99.90;;;;;;5030863;28;20180;-63
2021/05/04 08:11:04;;;;;;;7.63;3.00;;;11.50;99.90;;;;;;5051128;28;20171;-64
2021/05/04 08:13:29;;;;;;;2.97;2.70;;;11.50;99.90;;;;;;5050929;28;20900;-63
2021/05/04 08:15:55;;;;;;;2.90;2.63;;;11.60;99.90;;;;;;5033237;28;20184;-65
2021/05/04 08:18:20;;;;;;;3.00;2.80;;;11.60;99.90;;;;;;5031416;28;20199;-64
2021/05/04 08:20:48;;;;;;;4.33;2.73;;;11.60;99.90;;;;;;5047398;28;20185;-64
2021/05/04 08:23:16;;;;;;;2.97;2.70;;;11.30;99.90;;;;;;5050933;28;20199;-64
2021/05/04 08:25:41;;;;;;;4.03;2.97;;;11.00;99.90;;;;;;5036025;28;20183;-64
2021/05/04 08:28:07;;;;;;;3.27;3.00;;;10.80;99.90;;;;;;5031314;28;20175;-64
2021/05/04 08:30:33;;;;;;;4.90;2.80;;;10.60;99.90;;;;;;5044823;28;20174;-63
2021/05/04 08:32:59;;;;;;;3.30;2.87;;;10.50;99.90;;;;;;5051071;28;20256;-65
2021/05/04 08:35:25;;;;;;;13.67;3.30;;;10.60;99.90;;;;;;5038436;28;20537;-64
2021/05/04 08:37:52;;;;;;;2.97;2.77;;;10.60;99.90;;;;;;5031440;28;20160;-64
2021/05/04 08:40:17;;;;;;;3.20;3.00;;;10.50;99.90;;;;;;5041520;28;20175;-64
2021/05/04 08:42:43;;;;;;;4.60;3.00;;;10.50;99.90;;;;;;5050806;28;20216;-64
2021/05/04 08:45:10;;;;;;;4.70;3.00;;;10.70;99.90;;;;;;5041829;28;20180;-64
2021/05/04 08:47:36;;;;;;;4.97;3.40;;;10.80;99.90;;;;;;5044471;28;20183;-63
2021/05/04 08:50:03;;;;;;;5.20;3.00;;;10.90;99.90;;;;;;5042932;28;20180;-64
2021/05/04 08:52:28;;;;;;;4.43;2.93;;;10.80;99.90;;;;;;5030809;28;20203;-64
2021/05/04 08:54:54;;;;;;;7.20;3.23;;;11.00;99.90;;;;;;5037131;28;20579;-65
2021/05/04 08:57:20;;;;;;;2.80;2.60;;;11.30;99.90;;;;;;5051099;28;20163;-64
2021/05/04 08:59:46;;;;;;;3.30;2.60;;;11.60;99.90;;;;;;5046214;28;20179;-65
2021/05/04 09:02:11;;;;;;;4.80;2.80;;;12.00;99.90;;;;;;5031143;28;20167;-64
2021/05/04 09:04:54;;;;;;;2.97;2.60;;;12.60;99.90;;;;;;5034348;28;20229;-64
2021/05/04 09:07:30;;;;;;;2.73;2.53;;;13.20;99.90;;;;;;5051123;28;20174;-64
2021/05/04 09:12:45;;;;;;;3.77;2.70;;;13.50;99.90;;;;;;5031092;28;20210;-64
2021/05/04 09:16:01;;;;;;;4.07;2.60;;;13.00;99.90;;;;;;5039700;28;20249;-65
2021/05/04 09:21:14;;;;;;;4.50;3.27;;;12.40;99.90;;;;;;5039247;28;20179;-64
2021/05/04 09:23:42;;;;;;;5.30;2.80;;;12.30;99.90;;;;;;5034729;28;20697;-64
2021/05/04 09:26:19;;;;;;;3.33;2.70;;;12.40;99.90;;;;;;5034522;28;20187;-65
2021/05/04 09:28:53;;;;;;;2.53;2.40;;;12.60;99.90;;;;;;5034683;28;20183;-64
2021/05/04 09:31:23;;;;;;;7.70;3.20;;;12.90;99.90;;;;;;5050231;28;20178;-64
2021/05/04 09:33:49;;;;;;;2.40;2.30;;;12.90;99.90;;;;;;5054324;28;20577;-64
2021/05/04 09:36:39;;;;;;;10.07;2.77;;;13.00;99.90;;;;;;5039758;28;20180;-65
2021/05/04 09:39:06;;;;;;;4.93;2.40;;;13.10;99.90;;;;;;5034365;28;20172;-64
2021/05/04 09:41:32;;;;;;;8.50;3.20;;;13.20;99.90;;;;;;5050236;28;20257;-65
2021/05/04 09:43:58;;;;;;;9.73;3.03;;;13.20;99.90;;;;;;5054193;28;20293;-65
2021/05/04 09:47:02;;;;;;;5.87;3.33;;;13.20;99.90;;;;;;5038227;28;20187;-64
2021/05/04 09:49:34;;;;;;;5.00;2.90;;;13.00;99.90;;;;;;4953750;29;20233;-65
2021/05/04 09:52:40;;;;;;;5.80;3.60;;;12.40;99.90;;;;;;4992079;28;20180;-64
2021/05/04 09:55:16;;;;;;;4.57;2.63;;;12.20;99.90;;;;;;5028938;28;20613;-64
2021/05/04 09:57:46;;;;;;;3.97;2.67;;;12.50;99.90;;;;;;5054315;28;20253;-65
2021/05/04 10:00:14;;;;;;;5.40;3.13;;;12.60;99.90;;;;;;5049369;28;20181;-65
2021/05/04 10:02:42;;;;;;;3.13;2.50;;;12.80;99.90;;;;;;5034175;28;20560;-64
2021/05/04 10:05:18;;;;;;;6.73;2.67;;;12.70;99.90;;;;;;5037776;28;20182;-64
2021/05/04 10:07:45;;;;;;;3.90;2.83;;;12.70;99.90;;;;;;5054083;28;20175;-64
2021/05/04 10:10:14;;;;;;;15.57;3.47;;;12.50;99.90;;;;;;5049645;28;20183;-64
2021/05/04 10:12:41;;;;;;;10.67;3.83;;;12.50;99.90;;;;;;5033823;28;20717;-65
2021/05/04 10:15:09;;;;;;;14.63;3.63;;;12.40;99.90;;;;;;5035053;28;20186;-64
2021/05/04 10:17:36;;;;;;;13.60;4.37;;;12.30;99.90;;;;;;5053777;28;20250;-64
2021/05/04 10:20:15;;;;;;;20.60;4.60;;;11.90;99.90;;;;;;5051950;28;20174;-65
2021/05/04 10:22:41;;;;;;;24.83;6.53;;;11.50;99.90;;;;;;5033776;28;20253;-64
2021/05/04 10:25:25;;;;;;;20.50;4.90;;;11.50;99.90;;;;;;5035760;28;20183;-64
2021/05/04 10:27:56;;;;;;;25.37;6.50;;;11.60;99.90;;;;;;5033833;28;20202;-65
2021/05/04 10:30:23;;;;;;;43.30;6.10;;;11.90;99.90;;;;;;5036825;28;20667;-64
2021/05/04 10:33:02;;;;;;;24.17;4.67;;;12.40;99.90;;;;;;5053442;28;20256;-64
2021/05/04 10:35:34;;;;;;;28.20;4.60;;;13.00;99.90;;;;;;5042893;28;20544;-65
2021/05/04 10:38:10;;;;;;;34.50;5.90;;;13.30;99.90;;;;;;5033547;28;20552;-65
2021/05/04 10:40:39;;;;;;;24.17;5.53;;;13.50;99.90;;;;;;5043829;28;20589;-65
2021/05/04 10:43:27;;;;;;;9.20;3.83;;;13.40;99.90;;;;;;5053212;28;20293;-66
2021/05/04 10:45:54;;;;;;;6.07;4.00;;;12.70;99.90;;;;;;5043275;28;20549;-66
2021/05/04 10:48:42;;;;;;;7.40;4.43;;;11.90;99.90;;;;;;5048354;28;20261;-65
2021/05/04 10:51:16;;;;;;;5.93;3.77;;;11.80;99.90;;;;;;5037589;28;20183;-65
2021/05/04 10:53:56;;;;;;;7.53;3.13;;;12.40;99.90;;;;;;5031796;28;20580;-66
2021/05/04 10:56:35;;;;;;;5.53;3.20;;;13.20;99.90;;;;;;5049285;28;20178;-65
2021/05/04 10:59:01;;;;;;;9.80;5.00;;;13.80;99.90;;;;;;5039565;28;20183;-65
2021/05/04 11:01:27;;;;;;;3.37;2.90;;;14.00;99.90;;;;;;5032605;28;20229;-65
2021/05/04 11:03:55;;;;;;;7.70;3.37;;;14.10;99.90;;;;;;5044598;28;20790;-66
2021/05/04 11:06:23;;;;;;;7.37;3.80;;;14.30;99.90;;;;;;5052730;28;20232;-65
2021/05/04 11:08:49;;;;;;;8.03;3.47;;;14.20;99.90;;;;;;5041926;28;20207;-66
2021/05/04 11:11:24;;;;;;;7.60;3.60;;;14.20;99.90;;;;;;5032537;28;20182;-65
2021/05/04 11:14:07;;;;;;;9.10;3.57;;;13.90;99.90;;;;;;5043462;28;20202;-65
2021/05/04 11:16:56;;;;;;;10.87;3.77;;;13.60;99.90;;;;;;5052476;28;20179;-65
2021/05/04 11:19:34;;;;;;;10.43;3.67;;;13.50;99.90;;;;;;5037509;28;20263;-66
2021/05/04 11:21:59;;;;;;;5.23;3.07;;;13.50;99.90;;;;;;5032352;28;20172;-65
2021/05/04 11:26:59;;;;;;;10.23;3.60;;;13.30;99.90;;;;;;5052587;28;20316;-66
2021/05/04 11:29:31;;;;;;;11.43;4.33;;;13.50;99.90;;;;;;5038009;28;20639;-65
2021/05/04 11:32:36;;;;;;;7.73;3.03;;;14.00;99.90;;;;;;5032392;28;20179;-65
2021/05/04 11:35:03;;;;;;;9.67;2.90;;;14.40;99.90;;;;;;5032787;28;20186;-66
2021/05/04 11:37:36;;;;;;;12.43;4.97;;;15.30;99.90;;;;;;5031749;28;20203;-65
2021/05/04 11:40:14;;;;;;;9.90;3.33;;;15.50;99.90;;;;;;5047968;28;20179;-66
2021/05/04 11:42:51;;;;;;;8.37;3.83;;;15.40;99.90;;;;;;5071668;22;20218;-65
2021/05/04 11:45:25;;;;;;;13.80;4.23;;;15.50;99.90;;;;;;5072011;28;20177;-64
2021/05/04 11:47:52;;;;;;;13.00;4.67;;;15.50;99.90;;;;;;5070813;28;20253;-66
2021/05/04 11:50:21;;;;;;;41.83;6.83;;;15.40;99.90;;;;;;5051726;28;20170;-66
2021/05/04 11:52:50;;;;;;;56.83;7.00;;;15.40;99.90;;;;;;5067384;28;20580;-65
2021/05/04 11:55:27;;;;;;;44.30;6.33;;;15.80;99.90;;;;;;5070911;28;20170;-65
2021/05/04 11:58:22;;;;;;;9.90;3.93;;;16.20;99.90;;;;;;5056144;28;20181;-65
2021/05/04 12:00:55;;;;;;;8.10;4.13;;;15.90;99.90;;;;;;5051875;28;20189;-64
2021/05/04 12:03:21;;;;;;;29.20;5.73;;;15.20;99.90;;;;;;5070927;28;20194;-66
2021/05/04 12:05:46;;;;;;;18.37;5.00;;;15.00;99.90;;;;;;5072064;28;20182;-65
2021/05/04 12:08:14;;;;;;;11.47;4.40;;;14.70;99.90;;;;;;5053106;28;20266;-65
2021/05/04 12:10:47;;;;;;;8.80;3.83;;;14.60;99.90;;;;;;5051575;28;20175;-64
2021/05/04 12:13:14;;;;;;;15.43;4.30;;;14.90;99.90;;;;;;5069490;28;20205;-65
2021/05/04 12:15:44;;;;;;;7.23;3.23;;;15.00;99.90;;;;;;5071794;28;20223;-65
2021/05/04 12:18:23;;;;;;;12.70;4.10;;;15.00;99.90;;;;;;5054511;28;20181;-64
2021/05/04 12:20:54;;;;;;;7.40;3.27;;;15.30;99.90;;;;;;5051364;28;20229;-64
2021/05/04 12:23:30;;;;;;;9.27;2.90;;;15.70;99.90;;;;;;5069194;28;20186;-65
2021/05/04 12:26:03;;;;;;;14.87;4.63;;;15.90;99.90;;;;;;5071756;28;20166;-64
2021/05/04 12:28:32;;;;;;;5.70;2.70;;;15.70;99.90;;;;;;5051981;28;20231;-65
2021/05/04 12:31:22;;;;;;;9.70;4.10;;;15.00;99.90;;;;;;5051367;28;20177;-65
2021/05/04 12:33:50;;;;;;;14.10;3.93;;;14.80;99.90;;;;;;5031495;28;20203;-64
2021/05/04 12:36:46;;;;;;;11.67;3.57;;;14.70;99.90;;;;;;5031523;28;20175;-64
2021/05/04 12:39:30;;;;;;;19.10;4.07;;;14.90;99.90;;;;;;5031467;28;20241;-65
2021/05/04 12:41:59;;;;;;;19.47;3.70;;;14.70;99.90;;;;;;5040943;28;20686;-66
2021/05/04 12:44:33;;;;;;;14.57;4.60;;;14.70;99.90;;;;;;5071086;28;20202;-65
2021/05/04 12:47:05;;;;;;;11.03;2.90;;;15.50;99.90;;;;;;5065768;28;20182;-65
2021/05/04 12:49:39;;;;;;;14.90;4.17;;;16.10;99.90;;;;;;5063049;28;20537;-66
2021/05/04 12:52:12;;;;;;;19.43;4.57;;;16.80;99.90;;;;;;5069273;28;20175;-65
2021/05/04 12:54:39;;;;;;;17.97;4.60;;;16.60;99.90;;;;;;5055382;28;20198;-65
2021/05/04 12:57:27;;;;;;;17.27;3.97;;;16.30;99.90;;;;;;5060576;28;20237;-64
2021/05/04 12:59:56;;;;;;;18.97;3.87;;;15.60;99.90;;;;;;5075218;28;20220;-65
2021/05/04 13:02:24;;;;;;;15.10;3.50;;;15.30;99.90;;;;;;5072184;28;20209;-64